Pagina principale
METAR-TAF:

METAR-TAF

Aeroporti :

Aeroporto di Latina

Latina, Italia

latitudine: 41-33N, longitudine: 012-54E, altezza: 25 m

Osservazione

Il bollettino è stato emesso 4 ore e 59 minuti fa, alle 17:55 UTC
Vento 2 kt da nord
Temperature 15°C
Umidità 88%
Pressione 1026 hPa
Visibilità 10 km o più
nessuna nube inferiore a 1500 m e nessun cumulonembo

METAR: LIRL 121755Z 01002KT CAVOK 15/13 Q1026 RMK FEW FEW200 MON INVIS NC VIS MIN 9999 WIND THR12 26001KT WIND THR30 35002KT BLU

Ora: 23:54 (22:54 UTC)

Previsione

Il bollettino è stato emesso 5 ore e 54 minuti fa, alle 17:00 UTC
Previsione valida dal 12 alle 18 UTC al 13 alle 03 UTC
Vento 3 kt da direzioni variabili
Visibilità 10 km o più
nessuna nube inferiore a 1500 m e nessun cumulonembo

TAF: LIRL 121700Z 1218/1303 VRB03KT CAVOK

Osservazioni e previsioni meteorologiche di più di 4000 aeroporti (messaggi METAR e TAF).

Le stazioni disponibili sono rappresentate dai dischi gialli e rossi sulla carta.

Puntare il mouse per vedere il nome della stazione.

Clicca sopra per visualizzare le osservazioni e previsioni meteorologiche.

Per cambiare la mappa : fare clic sui pulsanti verdi con una croce nera per ingrandire, il pulsante verde con un trattino per diminuire, o sulla freccia verde per le mappe adiacenti.


METAR-TAF: